Time;durP1;ratioP1;P1;durP2;ratioP2;P2;SDS_P1;SDS_P2;PMS_P1;PMS_P2;Temp;Humidity;BMP_temperature;BMP_pressure;BME280_temperature;BME280_humidity;BME280_pressure;Samples;Min_cycle;Max_cycle;Signal;HPM_P1;HPM_P2
2023/05/11 00:02:12;;;;;;;30.00;22.02;;;13.70;99.90;;;;;;5052630;28;20416;-64
2023/05/11 00:04:39;;;;;;;35.40;23.40;;;13.70;99.90;;;;;;5052108;28;20413;-63
2023/05/11 00:07:05;;;;;;;33.38;23.02;;;13.70;99.90;;;;;;5052238;28;20417;-64
2023/05/11 00:09:34;;;;;;;30.75;22.83;;;13.70;99.90;;;;;;5051831;28;20911;-63
2023/05/11 00:12:01;;;;;;;32.22;22.25;;;13.70;99.90;;;;;;5052090;28;20499;-64
2023/05/11 00:14:28;;;;;;;32.05;22.08;;;13.70;99.90;;;;;;5051857;28;20538;-63
2023/05/11 00:16:55;;;;;;;29.15;21.13;;;13.70;99.90;;;;;;5052026;28;20421;-63
2023/05/11 00:19:21;;;;;;;31.70;22.50;;;13.70;99.90;;;;;;5051981;28;20412;-63
2023/05/11 00:21:48;;;;;;;33.00;22.25;;;13.70;99.90;;;;;;5052157;28;20412;-64
2023/05/11 00:24:15;;;;;;;30.67;22.03;;;13.70;99.90;;;;;;5051811;28;20516;-62
2023/05/11 00:26:43;;;;;;;31.30;22.42;;;13.70;99.90;;;;;;5052917;28;20413;-62
2023/05/11 00:29:10;;;;;;;30.40;22.05;;;13.70;99.90;;;;;;5055607;28;20915;-63
2023/05/11 00:31:37;;;;;;;28.42;21.30;;;13.70;99.90;;;;;;5055852;28;20413;-63
2023/05/11 00:34:03;;;;;;;28.50;20.13;;;13.70;99.90;;;;;;5055745;28;20459;-63
2023/05/11 00:36:30;;;;;;;27.52;20.08;;;13.60;99.90;;;;;;5055353;28;20425;-64
2023/05/11 00:38:57;;;;;;;26.58;18.90;;;13.60;99.90;;;;;;5055580;28;20417;-63
2023/05/11 00:41:23;;;;;;;26.75;19.50;;;13.60;99.90;;;;;;5055667;28;20417;-63
2023/05/11 00:43:52;;;;;;;25.73;19.20;;;13.50;99.90;;;;;;5055602;28;20416;-63
2023/05/11 00:46:18;;;;;;;25.17;18.65;;;13.50;99.90;;;;;;5056293;28;20416;-63
2023/05/11 00:48:45;;;;;;;24.38;19.15;;;13.50;99.90;;;;;;5055743;28;20413;-63
2023/05/11 00:51:13;;;;;;;22.58;17.40;;;13.50;99.90;;;;;;5055681;28;20420;-64
2023/05/11 00:53:40;;;;;;;23.65;18.92;;;13.50;99.90;;;;;;5055552;28;20444;-63
2023/05/11 00:56:08;;;;;;;24.38;18.40;;;13.50;99.90;;;;;;5055459;28;20428;-63
2023/05/11 00:58:35;;;;;;;26.73;18.52;;;13.40;99.90;;;;;;5055518;28;20413;-63
2023/05/11 01:01:03;;;;;;;22.98;18.02;;;13.50;99.90;;;;;;5055547;28;20413;-63
2023/05/11 01:03:30;;;;;;;22.50;17.52;;;13.40;99.90;;;;;;5055450;28;20413;-64
2023/05/11 01:06:05;;;;;;;23.05;17.10;;;13.40;99.90;;;;;;5055319;28;20413;-64
2023/05/11 01:08:39;;;;;;;21.40;16.65;;;13.40;99.90;;;;;;5055398;28;20447;-63
2023/05/11 01:11:13;;;;;;;20.80;16.20;;;13.40;99.90;;;;;;5055263;28;20504;-63
2023/05/11 01:13:45;;;;;;;22.88;17.30;;;13.40;99.90;;;;;;5055235;28;20413;-65
2023/05/11 01:16:19;;;;;;;22.60;17.23;;;13.40;99.90;;;;;;5055180;28;20432;-64
2023/05/11 01:18:51;;;;;;;23.40;16.98;;;13.30;99.90;;;;;;5055073;28;20783;-63
2023/05/11 01:21:18;;;;;;;22.08;17.10;;;13.30;99.90;;;;;;5054887;28;20417;-64
2023/05/11 01:24:14;;;;;;;22.23;15.93;;;13.40;99.90;;;;;;5054801;28;20420;-63
2023/05/11 01:27:02;;;;;;;19.45;15.45;;;13.30;99.90;;;;;;5034426;28;20432;-63
2023/05/11 01:30:15;;;;;;;20.10;15.32;;;13.30;99.90;;;;;;5054890;28;20433;-63
2023/05/11 01:32:45;;;;;;;17.00;13.70;;;13.30;99.90;;;;;;5054786;28;20412;-63
2023/05/11 01:35:18;;;;;;;16.33;12.70;;;13.30;99.90;;;;;;5055450;28;20417;-64
2023/05/11 01:37:49;;;;;;;18.23;13.70;;;13.30;99.90;;;;;;5055239;28;20516;-65
2023/05/11 01:40:18;;;;;;;15.27;13.20;;;13.30;99.90;;;;;;5054774;28;20428;-63
2023/05/11 01:42:51;;;;;;;13.65;11.40;;;13.20;99.90;;;;;;5054722;28;20423;-64
2023/05/11 01:45:20;;;;;;;16.30;12.93;;;13.20;99.90;;;;;;5054258;28;20505;-62
2023/05/11 01:47:50;;;;;;;14.60;12.25;;;13.20;99.90;;;;;;5054564;28;20428;-64
2023/05/11 01:50:20;;;;;;;15.60;12.50;;;13.20;99.90;;;;;;5054329;28;20903;-63
2023/05/11 01:52:48;;;;;;;16.38;13.20;;;13.20;99.90;;;;;;5054787;28;20512;-63
2023/05/11 01:55:19;;;;;;;15.30;12.65;;;13.10;99.90;;;;;;5053964;28;20413;-63
2023/05/11 01:57:48;;;;;;;15.48;12.25;;;13.10;99.90;;;;;;5054298;28;20436;-63
2023/05/11 02:00:17;;;;;;;19.23;13.38;;;13.10;99.90;;;;;;5054765;28;20424;-63
2023/05/11 02:02:46;;;;;;;15.65;13.00;;;13.10;99.90;;;;;;5054616;28;20413;-63
2023/05/11 02:05:18;;;;;;;15.68;12.90;;;13.10;99.90;;;;;;5054296;28;20538;-63
2023/05/11 02:07:47;;;;;;;15.90;12.10;;;13.10;99.90;;;;;;5054774;28;20417;-63
2023/05/11 02:10:15;;;;;;;13.90;11.80;;;13.10;99.90;;;;;;5054532;28;20421;-63
2023/05/11 02:12:44;;;;;;;14.40;11.82;;;13.10;99.90;;;;;;5053885;28;20421;-62
2023/05/11 02:15:12;;;;;;;13.00;11.50;;;13.10;99.90;;;;;;5053502;28;20835;-63
2023/05/11 02:17:39;;;;;;;13.20;11.50;;;13.10;99.90;;;;;;5053468;28;20425;-64
2023/05/11 02:20:09;;;;;;;12.13;10.82;;;13.10;99.90;;;;;;5053886;28;20436;-65
2023/05/11 02:22:38;;;;;;;11.60;10.00;;;13.10;99.90;;;;;;5054018;28;20425;-63
2023/05/11 02:25:06;;;;;;;12.07;10.33;;;13.00;99.90;;;;;;5053529;28;20417;-63
2023/05/11 02:27:34;;;;;;;11.75;10.10;;;13.00;99.90;;;;;;5053958;28;20414;-63
2023/05/11 02:30:01;;;;;;;11.45;10.32;;;13.00;99.90;;;;;;5054216;28;20429;-63
2023/05/11 02:32:30;;;;;;;11.07;9.88;;;13.10;99.90;;;;;;5053394;28;20852;-63
2023/05/11 02:35:01;;;;;;;11.80;10.57;;;13.00;99.90;;;;;;5053264;28;20910;-64
2023/05/11 02:37:30;;;;;;;11.55;9.82;;;13.00;99.90;;;;;;5053173;28;20463;-64
2023/05/11 02:40:03;;;;;;;11.20;10.00;;;13.00;99.90;;;;;;5053139;28;20413;-65
2023/05/11 02:42:36;;;;;;;11.30;9.95;;;13.00;99.90;;;;;;5053426;28;20417;-64
2023/05/11 02:45:07;;;;;;;10.55;9.45;;;13.00;99.90;;;;;;5053204;28;20418;-64
2023/05/11 02:47:39;;;;;;;11.20;9.75;;;13.00;99.90;;;;;;5053401;28;20413;-64
2023/05/11 02:50:09;;;;;;;11.55;9.95;;;13.00;99.90;;;;;;5052194;28;20414;-64
2023/05/11 02:52:37;;;;;;;11.48;10.05;;;13.10;99.90;;;;;;5053215;28;20420;-64
2023/05/11 02:55:08;;;;;;;10.45;9.18;;;13.00;99.90;;;;;;5053094;28;20413;-64
2023/05/11 02:57:35;;;;;;;11.50;10.30;;;13.00;99.90;;;;;;5053681;28;20461;-64
2023/05/11 03:00:03;;;;;;;12.23;10.57;;;13.00;99.90;;;;;;5053147;28;20419;-63
2023/05/11 03:02:29;;;;;;;10.10;9.10;;;13.00;99.90;;;;;;5052921;28;20424;-63
2023/05/11 03:04:56;;;;;;;10.87;9.27;;;13.00;99.90;;;;;;5052797;28;20468;-64
2023/05/11 03:07:23;;;;;;;10.30;9.30;;;13.00;99.90;;;;;;5052837;28;20780;-64
2023/05/11 03:09:50;;;;;;;9.85;8.85;;;13.00;99.90;;;;;;5052724;28;20428;-63
2023/05/11 03:12:18;;;;;;;10.30;9.20;;;13.00;99.90;;;;;;5052677;28;20413;-63
2023/05/11 03:14:45;;;;;;;10.45;9.20;;;13.00;99.90;;;;;;5052588;28;20424;-63
2023/05/11 03:17:13;;;;;;;10.25;9.25;;;12.90;99.90;;;;;;5052568;28;20436;-64
2023/05/11 03:19:41;;;;;;;10.20;9.20;;;12.90;99.90;;;;;;5052666;28;20413;-64
2023/05/11 03:22:09;;;;;;;10.57;9.10;;;12.90;99.90;;;;;;5052388;28;20883;-63
2023/05/11 03:24:37;;;;;;;11.48;9.55;;;12.90;99.90;;;;;;5070587;23;20490;-62
2023/05/11 03:27:05;;;;;;;11.10;9.90;;;12.90;99.90;;;;;;5032748;28;20417;-61
2023/05/11 03:29:37;;;;;;;10.15;9.15;;;12.90;99.90;;;;;;5032738;28;20414;-61
2023/05/11 03:32:04;;;;;;;10.50;9.40;;;12.90;99.90;;;;;;5032676;28;20419;-61
2023/05/11 03:34:31;;;;;;;10.50;9.40;;;12.90;99.90;;;;;;5036640;28;20993;-58
2023/05/11 03:37:00;;;;;;;10.30;9.30;;;13.00;99.90;;;;;;5052262;28;20420;-60
2023/05/11 03:39:30;;;;;;;10.70;9.60;;;13.00;99.90;;;;;;5052332;28;20413;-62
2023/05/11 03:41:58;;;;;;;9.82;8.82;;;13.00;99.90;;;;;;5052356;28;20443;-62
2023/05/11 03:44:26;;;;;;;10.50;9.48;;;12.90;99.90;;;;;;5052017;28;20413;-62
2023/05/11 03:46:55;;;;;;;10.00;8.90;;;12.90;99.90;;;;;;5051976;28;20409;-61
2023/05/11 03:49:22;;;;;;;10.88;9.77;;;12.90;99.90;;;;;;5052017;28;21005;-61
2023/05/11 03:51:49;;;;;;;10.23;9.23;;;12.90;99.90;;;;;;5052073;28;20421;-61
2023/05/11 03:54:16;;;;;;;10.40;9.40;;;13.00;99.90;;;;;;5054623;28;20884;-60
2023/05/11 03:56:43;;;;;;;10.57;9.48;;;13.00;99.90;;;;;;5053897;28;20412;-62
2023/05/11 03:59:15;;;;;;;10.60;9.60;;;13.00;99.90;;;;;;5051967;28;20417;-60
2023/05/11 04:01:42;;;;;;;9.50;8.50;;;13.00;99.90;;;;;;5051908;28;20501;-61
2023/05/11 04:04:10;;;;;;;9.88;8.90;;;13.00;99.90;;;;;;5052034;28;20859;-62
2023/05/11 04:06:37;;;;;;;9.55;8.65;;;13.00;99.90;;;;;;5052166;28;20516;-61
2023/05/11 04:11:41;;;;;;;10.60;9.47;;;13.10;99.90;;;;;;5111707;27;20337;-63
2023/05/11 04:14:08;;;;;;;10.70;9.60;;;13.10;99.90;;;;;;5110302;28;20416;-63
2023/05/11 04:16:35;;;;;;;10.10;9.10;;;13.10;99.90;;;;;;5110765;28;20424;-63
2023/05/11 04:19:01;;;;;;;9.95;8.95;;;13.10;99.90;;;;;;5110753;28;20488;-62
2023/05/11 04:21:28;;;;;;;10.35;9.35;;;13.10;99.90;;;;;;5109798;28;20883;-62
2023/05/11 04:23:55;;;;;;;9.60;8.60;;;13.20;99.90;;;;;;5110202;28;20409;-62
2023/05/11 04:26:22;;;;;;;10.40;9.40;;;13.20;99.90;;;;;;5110051;28;20424;-62
2023/05/11 04:28:50;;;;;;;10.77;9.77;;;13.20;99.90;;;;;;5110446;28;20416;-62
2023/05/11 04:31:17;;;;;;;10.50;9.50;;;13.20;99.90;;;;;;5111472;28;20448;-62
2023/05/11 04:33:44;;;;;;;10.48;9.40;;;13.20;99.90;;;;;;5111259;28;20423;-62
2023/05/11 04:36:10;;;;;;;10.93;9.82;;;13.20;99.90;;;;;;5110896;28;20439;-61
2023/05/11 04:38:37;;;;;;;10.52;9.52;;;13.30;99.90;;;;;;5111333;28;20764;-61
2023/05/11 04:41:05;;;;;;;10.40;9.30;;;13.30;99.90;;;;;;5110563;28;20411;-62
2023/05/11 04:43:31;;;;;;;11.10;10.00;;;13.30;99.90;;;;;;5110454;28;20410;-62
2023/05/11 04:45:59;;;;;;;11.13;10.00;;;13.30;99.90;;;;;;5109309;28;20418;-62
2023/05/11 04:48:27;;;;;;;11.68;10.57;;;13.30;99.90;;;;;;5109145;28;20421;-63
2023/05/11 04:50:54;;;;;;;11.10;10.10;;;13.40;99.90;;;;;;5108749;28;20428;-64
2023/05/11 04:53:21;;;;;;;11.88;10.68;;;13.40;99.90;;;;;;5109327;28;20792;-63
2023/05/11 04:55:48;;;;;;;11.30;10.10;;;13.40;99.90;;;;;;5109338;28;20409;-63
2023/05/11 04:58:15;;;;;;;11.68;10.57;;;13.40;99.90;;;;;;5108493;28;20417;-62
2023/05/11 05:00:41;;;;;;;12.00;10.90;;;13.50;99.90;;;;;;5108507;28;20906;-63
2023/05/11 05:03:09;;;;;;;12.97;11.60;;;13.50;99.90;;;;;;5109235;28;20413;-62
2023/05/11 05:05:36;;;;;;;12.23;11.02;;;13.50;99.90;;;;;;5110165;28;20414;-61
2023/05/11 05:08:03;;;;;;;12.63;11.43;;;13.60;99.90;;;;;;5110137;28;20515;-62
2023/05/11 05:10:29;;;;;;;12.60;11.30;;;13.70;99.90;;;;;;5119736;28;20427;-62
2023/05/11 05:12:56;;;;;;;13.35;11.98;;;13.70;99.90;;;;;;5129515;28;20412;-62
2023/05/11 05:15:23;;;;;;;12.50;11.30;;;13.80;99.90;;;;;;5129309;28;20758;-61
2023/05/11 05:17:50;;;;;;;13.60;12.20;;;13.80;99.90;;;;;;5129281;28;20754;-61
2023/05/11 05:20:18;;;;;;;12.38;11.05;;;13.80;99.90;;;;;;5129285;28;20411;-62
2023/05/11 05:22:45;;;;;;;13.02;11.63;;;13.90;99.90;;;;;;5117070;28;20404;-61
2023/05/11 05:25:11;;;;;;;13.00;11.70;;;13.90;99.90;;;;;;5115545;28;20507;-62
2023/05/11 05:27:38;;;;;;;14.25;12.80;;;14.00;99.90;;;;;;5115535;28;20874;-62
2023/05/11 05:30:06;;;;;;;14.10;12.60;;;14.10;99.90;;;;;;5115529;28;20443;-62
2023/05/11 05:32:33;;;;;;;14.20;12.70;;;14.10;99.90;;;;;;5115416;28;20408;-62
2023/05/11 05:35:00;;;;;;;13.93;12.43;;;14.20;99.90;;;;;;5115373;28;20416;-62
2023/05/11 05:37:28;;;;;;;14.30;12.80;;;14.20;99.90;;;;;;5115394;28;20482;-63
2023/05/11 05:39:55;;;;;;;15.10;13.50;;;14.30;99.90;;;;;;5117313;28;20499;-64
2023/05/11 05:42:21;;;;;;;15.60;14.00;;;14.30;99.90;;;;;;5125075;28;20409;-61
2023/05/11 05:44:48;;;;;;;15.80;14.20;;;14.40;99.90;;;;;;5119927;28;20408;-62
2023/05/11 05:47:15;;;;;;;16.88;15.20;;;14.40;99.90;;;;;;5116515;28;20413;-63
2023/05/11 05:49:42;;;;;;;16.00;14.40;;;14.40;99.90;;;;;;5116734;28;20416;-63
2023/05/11 05:52:10;;;;;;;16.17;14.57;;;14.40;99.90;;;;;;5115703;28;20412;-64
2023/05/11 05:54:38;;;;;;;18.00;16.20;;;14.50;99.90;;;;;;5115203;28;20416;-63
2023/05/11 05:57:05;;;;;;;17.08;15.35;;;14.50;99.90;;;;;;5116320;28;20502;-63
2023/05/11 05:59:32;;;;;;;18.73;16.73;;;14.50;99.90;;;;;;5125716;28;20403;-60
2023/05/11 06:01:59;;;;;;;17.58;15.88;;;14.60;99.90;;;;;;5118656;28;20769;-64
2023/05/11 06:04:25;;;;;;;17.92;16.02;;;14.60;99.90;;;;;;5122004;28;20418;-62
2023/05/11 06:06:54;;;;;;;17.47;15.60;;;14.60;99.90;;;;;;5116992;28;20424;-63
2023/05/11 06:09:21;;;;;;;17.97;16.23;;;14.70;99.90;;;;;;5115766;28;20447;-63
2023/05/11 06:11:49;;;;;;;18.63;16.58;;;14.70;99.90;;;;;;5114636;28;20424;-63
2023/05/11 06:14:16;;;;;;;19.00;17.00;;;14.70;99.90;;;;;;5114783;28;20419;-63
2023/05/11 06:16:43;;;;;;;19.92;17.92;;;14.70;99.90;;;;;;5114268;28;20408;-63
2023/05/11 06:19:10;;;;;;;19.35;17.35;;;14.70;99.90;;;;;;5114426;28;20408;-62
2023/05/11 06:21:36;;;;;;;20.65;18.55;;;14.70;99.90;;;;;;5114363;28;20447;-63
2023/05/11 06:24:03;;;;;;;20.15;18.13;;;14.70;99.90;;;;;;5114959;28;20416;-63
2023/05/11 06:26:30;;;;;;;21.00;18.83;;;14.70;99.90;;;;;;5115292;28;20427;-62
2023/05/11 06:28:58;;;;;;;21.00;18.90;;;14.70;99.90;;;;;;5114927;28;20869;-64
2023/05/11 06:31:25;;;;;;;21.60;18.55;;;14.70;99.90;;;;;;5113979;28;20420;-64
2023/05/11 06:33:52;;;;;;;20.75;18.55;;;14.70;99.90;;;;;;5113487;28;20444;-64
2023/05/11 06:36:19;;;;;;;20.73;18.52;;;14.70;99.90;;;;;;5114166;28;20882;-64
2023/05/11 06:39:06;;;;;;;21.73;19.27;;;14.70;99.90;;;;;;5117041;28;20423;-65
2023/05/11 06:41:33;;;;;;;21.85;19.65;;;14.60;99.90;;;;;;5126011;28;20495;-63
2023/05/11 06:44:01;;;;;;;22.05;19.75;;;14.60;99.90;;;;;;5114290;28;20408;-64
2023/05/11 06:46:28;;;;;;;21.90;19.60;;;14.50;99.90;;;;;;5114887;28;20412;-64
2023/05/11 06:48:55;;;;;;;22.85;19.42;;;14.50;99.90;;;;;;5114559;28;20415;-63
2023/05/11 06:51:52;;;;;;;22.65;19.98;;;14.40;99.90;;;;;;5117640;28;20447;-62
2023/05/11 06:54:19;;;;;;;23.85;19.73;;;14.40;99.90;;;;;;5117705;28;20404;-64
2023/05/11 06:56:46;;;;;;;22.05;18.77;;;14.40;99.90;;;;;;5114594;28;20420;-61
2023/05/11 06:59:14;;;;;;;23.70;20.30;;;14.50;99.90;;;;;;5114668;28;20504;-64
2023/05/11 07:01:41;;;;;;;23.07;19.53;;;14.50;99.90;;;;;;5115230;28;20415;-64
2023/05/11 07:04:08;;;;;;;22.95;19.80;;;14.50;99.90;;;;;;5114734;28;20416;-64
2023/05/11 07:06:35;;;;;;;21.25;18.42;;;14.60;99.90;;;;;;5114431;28;20424;-63
2023/05/11 07:09:02;;;;;;;18.38;16.40;;;14.60;99.90;;;;;;5115530;28;20416;-65
2023/05/11 07:11:31;;;;;;;18.85;16.85;;;14.60;99.90;;;;;;5114559;28;20432;-64
2023/05/11 07:13:57;;;;;;;20.40;17.53;;;14.60;99.90;;;;;;5114824;28;20412;-65
2023/05/11 07:16:26;;;;;;;20.00;17.63;;;14.70;99.90;;;;;;5117619;28;20440;-66
2023/05/11 07:18:52;;;;;;;18.63;16.60;;;14.70;99.90;;;;;;5118799;28;20412;-65
2023/05/11 07:21:20;;;;;;;18.48;16.50;;;14.70;99.90;;;;;;5118528;28;20408;-65
2023/05/11 07:23:47;;;;;;;17.30;15.50;;;14.70;99.90;;;;;;5118646;28;20419;-64
2023/05/11 07:26:14;;;;;;;18.50;16.50;;;14.70;99.90;;;;;;5118774;28;20411;-65
2023/05/11 07:28:41;;;;;;;17.20;15.40;;;14.70;99.90;;;;;;5119773;28;20408;-64
2023/05/11 07:31:07;;;;;;;17.50;15.55;;;14.80;99.90;;;;;;5121642;28;20810;-63
2023/05/11 07:33:38;;;;;;;17.00;15.20;;;14.80;99.90;;;;;;5123895;28;20404;-63
2023/05/11 07:36:05;;;;;;;18.40;16.50;;;14.80;99.90;;;;;;5125740;28;20422;-63
2023/05/11 07:38:32;;;;;;;17.10;15.30;;;14.80;99.90;;;;;;5118257;28;20416;-67
2023/05/11 07:40:59;;;;;;;17.63;15.73;;;14.90;99.90;;;;;;5113518;28;20412;-65
2023/05/11 07:43:25;;;;;;;17.70;15.80;;;14.90;99.90;;;;;;5113929;28;20412;-66
2023/05/11 07:45:52;;;;;;;17.27;15.48;;;15.00;99.90;;;;;;5113037;28;20414;-65
2023/05/11 07:48:19;;;;;;;16.60;14.90;;;15.00;99.90;;;;;;5119878;28;20416;-66
2023/05/11 07:50:48;;;;;;;15.38;13.50;;;15.10;99.90;;;;;;5118407;28;20435;-66
2023/05/11 07:53:15;;;;;;;15.07;13.48;;;15.00;99.90;;;;;;5113015;28;20412;-66
2023/05/11 07:55:41;;;;;;;14.95;13.45;;;15.00;99.90;;;;;;5112427;28;20882;-66
2023/05/11 07:58:08;;;;;;;16.77;14.90;;;14.90;99.90;;;;;;5112715;28;20886;-67
2023/05/11 08:00:35;;;;;;;16.90;14.00;;;14.80;99.90;;;;;;5113024;28;20412;-68
2023/05/11 08:03:02;;;;;;;17.05;14.70;;;14.70;99.90;;;;;;5113111;28;20842;-66
2023/05/11 08:05:31;;;;;;;16.17;14.40;;;14.60;99.90;;;;;;5112543;28;20930;-67
2023/05/11 08:08:00;;;;;;;17.05;14.27;;;14.60;99.90;;;;;;5112559;28;20511;-66
2023/05/11 08:10:27;;;;;;;15.00;12.85;;;14.60;99.90;;;;;;5112348;28;20416;-66
2023/05/11 08:12:54;;;;;;;15.32;13.77;;;14.60;99.90;;;;;;5113514;28;20416;-66
2023/05/11 08:15:21;;;;;;;13.45;11.90;;;14.60;99.90;;;;;;5112769;28;20438;-68
2023/05/11 08:17:47;;;;;;;14.73;12.95;;;14.60;99.90;;;;;;5112412;28;20423;-66
2023/05/11 08:20:14;;;;;;;15.63;13.70;;;14.70;99.90;;;;;;5112814;28;20412;-67
2023/05/11 08:22:41;;;;;;;15.13;13.23;;;14.70;99.90;;;;;;5112665;28;20725;-66
2023/05/11 08:25:10;;;;;;;15.40;13.43;;;14.70;99.90;;;;;;5112139;28;20419;-66
2023/05/11 08:27:36;;;;;;;14.02;12.40;;;14.70;99.90;;;;;;5112052;28;20464;-66
2023/05/11 08:30:07;;;;;;;16.70;13.65;;;14.70;99.90;;;;;;5112568;28;20759;-65
2023/05/11 08:32:35;;;;;;;17.10;13.30;;;14.70;99.90;;;;;;5112544;28;20436;-67
2023/05/11 08:35:02;;;;;;;14.93;13.32;;;14.70;99.90;;;;;;5112596;28;20469;-67
2023/05/11 08:37:29;;;;;;;15.30;13.60;;;14.60;99.90;;;;;;5112819;28;20420;-69
2023/05/11 08:39:56;;;;;;;17.25;14.82;;;14.60;99.90;;;;;;5112306;28;20463;-68
2023/05/11 08:42:26;;;;;;;15.38;13.70;;;14.70;99.90;;;;;;5111994;28;20410;-66
2023/05/11 08:44:56;;;;;;;14.38;12.10;;;14.70;99.90;;;;;;5112106;28;20408;-68
2023/05/11 08:47:24;;;;;;;14.63;13.10;;;14.70;99.90;;;;;;5112789;28;20432;-65
2023/05/11 08:49:52;;;;;;;13.90;11.80;;;14.70;99.90;;;;;;5112143;28;20460;-67
2023/05/11 08:52:19;;;;;;;13.63;11.63;;;14.70;99.90;;;;;;5111677;28;20420;-67
2023/05/11 08:54:46;;;;;;;14.20;11.57;;;14.60;99.90;;;;;;5112335;28;20412;-66
2023/05/11 08:57:14;;;;;;;13.60;12.20;;;14.70;99.90;;;;;;5113977;28;20441;-67
2023/05/11 08:59:44;;;;;;;13.00;11.60;;;14.70;99.90;;;;;;5116486;28;20423;-66
2023/05/11 09:02:16;;;;;;;12.13;10.90;;;14.70;99.90;;;;;;5117419;28;20400;-66
2023/05/11 09:04:43;;;;;;;12.77;11.48;;;14.70;99.90;;;;;;5124545;28;20422;-62
2023/05/11 09:07:14;;;;;;;13.30;11.90;;;14.70;99.90;;;;;;5118047;28;20430;-64
2023/05/11 09:09:41;;;;;;;13.30;11.90;;;14.60;99.90;;;;;;5118943;28;20905;-64
2023/05/11 09:12:08;;;;;;;12.27;11.07;;;14.50;99.90;;;;;;5117991;28;20420;-64
2023/05/11 09:14:37;;;;;;;11.45;10.35;;;14.50;99.90;;;;;;5119510;28;20408;-67
2023/05/11 09:17:09;;;;;;;13.15;10.15;;;14.50;99.90;;;;;;5117588;28;20420;-68
2023/05/11 09:19:36;;;;;;;12.07;10.77;;;14.50;99.90;;;;;;5119323;28;20408;-65
2023/05/11 09:22:06;;;;;;;11.80;10.30;;;14.50;99.90;;;;;;5117787;28;20461;-65
2023/05/11 09:24:33;;;;;;;13.13;10.27;;;14.50;99.90;;;;;;5134831;22;20420;-58
2023/05/11 09:27:09;;;;;;;9.80;8.80;;;14.60;99.90;;;;;;5036495;28;20789;-60
2023/05/11 09:29:36;;;;;;;9.50;8.60;;;14.60;99.90;;;;;;5035536;28;20417;-59
2023/05/11 09:32:05;;;;;;;9.40;8.40;;;14.70;99.90;;;;;;5036093;28;20427;-60
2023/05/11 09:34:32;;;;;;;8.50;7.65;;;14.70;99.90;;;;;;5035403;28;20417;-61
2023/05/11 09:36:58;;;;;;;7.95;7.20;;;14.70;99.90;;;;;;5035662;28;20422;-60
2023/05/11 09:39:29;;;;;;;7.13;6.43;;;14.70;99.90;;;;;;5035956;28;20419;-61
2023/05/11 09:42:12;;;;;;;7.60;6.90;;;14.70;99.90;;;;;;5035603;28;20828;-60
2023/05/11 09:44:40;;;;;;;7.57;6.88;;;14.70;99.90;;;;;;5035430;28;20423;-61
2023/05/11 09:47:12;;;;;;;7.40;6.70;;;14.70;99.90;;;;;;5035085;28;20419;-60
2023/05/11 09:49:41;;;;;;;6.17;5.57;;;14.80;99.90;;;;;;5036924;28;20201;-60
2023/05/11 09:52:09;;;;;;;6.85;6.15;;;14.80;99.90;;;;;;5035310;28;20427;-61
2023/05/11 09:54:42;;;;;;;6.33;5.63;;;14.80;99.90;;;;;;5036863;28;20257;-61
2023/05/11 09:57:23;;;;;;;6.80;6.10;;;14.80;99.90;;;;;;5034668;28;20889;-61
2023/05/11 09:59:50;;;;;;;6.53;5.93;;;14.80;99.90;;;;;;5035802;28;20422;-62
2023/05/11 10:02:23;;;;;;;7.10;5.70;;;14.70;99.90;;;;;;5035055;28;20422;-60
2023/05/11 10:04:51;;;;;;;8.37;5.50;;;14.70;99.90;;;;;;5035277;28;20901;-61
2023/05/11 10:07:25;;;;;;;5.95;5.25;;;14.70;99.90;;;;;;5036380;28;20415;-62
2023/05/11 10:09:54;;;;;;;5.28;4.78;;;14.70;99.90;;;;;;5036256;28;20411;-62
2023/05/11 10:12:23;;;;;;;5.93;5.32;;;14.80;99.90;;;;;;5035305;28;20431;-61
2023/05/11 10:14:51;;;;;;;6.20;5.60;;;14.80;99.90;;;;;;5036126;28;20414;-60
2023/05/11 10:17:19;;;;;;;6.30;5.60;;;14.80;99.90;;;;;;5034750;28;20918;-61
2023/05/11 10:19:48;;;;;;;6.00;5.28;;;14.80;99.90;;;;;;5034422;28;20422;-63
2023/05/11 10:22:16;;;;;;;7.03;5.80;;;14.80;99.90;;;;;;5034110;28;20430;-60
2023/05/11 10:24:43;;;;;;;6.30;5.50;;;14.70;99.90;;;;;;5034002;28;20419;-62
2023/05/11 10:27:11;;;;;;;6.10;5.50;;;14.70;99.90;;;;;;5034535;28;20419;-61
2023/05/11 10:29:38;;;;;;;7.00;6.10;;;14.60;99.90;;;;;;5034908;28;21036;-61
2023/05/11 10:32:07;;;;;;;7.68;6.40;;;14.60;99.90;;;;;;5034944;28;20426;-61
2023/05/11 10:34:34;;;;;;;7.60;6.70;;;14.60;99.90;;;;;;5034702;28;20500;-60
2023/05/11 10:37:02;;;;;;;7.45;6.30;;;14.60;99.90;;;;;;5036052;28;20419;-57
2023/05/11 10:39:30;;;;;;;8.05;7.25;;;14.60;99.90;;;;;;5034559;28;20435;-61
2023/05/11 10:42:22;;;;;;;7.40;6.60;;;14.60;99.90;;;;;;5034704;28;20418;-62
2023/05/11 10:45:03;;;;;;;8.32;7.28;;;14.60;99.90;;;;;;5034812;28;20407;-63
2023/05/11 10:48:09;;;;;;;8.30;7.30;;;14.60;99.90;;;;;;5035238;28;20419;-63
2023/05/11 10:50:47;;;;;;;9.40;8.27;;;14.60;99.90;;;;;;5034102;28;20419;-62
2023/05/11 10:53:46;;;;;;;9.00;7.50;;;14.70;99.90;;;;;;5034443;28;20435;-62
2023/05/11 10:56:34;;;;;;;9.35;7.43;;;14.70;99.90;;;;;;5034126;28;20415;-60
2023/05/11 10:59:19;;;;;;;11.00;8.13;;;14.70;99.90;;;;;;5034449;28;20494;-62
2023/05/11 11:01:50;;;;;;;10.63;8.65;;;14.70;99.90;;;;;;5034584;28;20781;-61
2023/05/11 11:04:19;;;;;;;10.75;8.50;;;14.60;99.90;;;;;;5034367;28;20418;-61
2023/05/11 11:06:46;;;;;;;10.57;8.10;;;14.70;99.90;;;;;;5034546;28;20419;-61
2023/05/11 11:09:15;;;;;;;10.38;8.07;;;14.70;99.90;;;;;;5034056;28;20819;-61
2023/05/11 11:11:44;;;;;;;10.60;8.30;;;14.70;99.90;;;;;;5037507;28;20722;-61
2023/05/11 11:14:12;;;;;;;9.70;7.72;;;14.70;99.90;;;;;;5034738;28;20415;-61
2023/05/11 11:16:40;;;;;;;9.88;7.68;;;14.70;99.90;;;;;;5033851;28;20415;-60
2023/05/11 11:19:38;;;;;;;11.02;7.57;;;14.70;99.90;;;;;;5034131;28;20471;-60
2023/05/11 11:22:05;;;;;;;10.30;7.20;;;14.70;99.90;;;;;;5028056;28;20411;-61
2023/05/11 11:24:46;;;;;;;7.45;5.85;;;14.70;99.90;;;;;;5033964;28;20411;-61
2023/05/11 11:27:14;;;;;;;9.98;6.72;;;14.60;99.90;;;;;;5034733;28;20415;-61
2023/05/11 11:29:41;;;;;;;10.23;6.40;;;14.60;99.90;;;;;;5033966;28;20763;-61
2023/05/11 11:32:27;;;;;;;9.65;6.90;;;14.60;99.90;;;;;;5034770;28;20442;-60
2023/05/11 11:34:54;;;;;;;8.98;6.30;;;14.60;99.90;;;;;;5037570;28;20410;-60
2023/05/11 11:37:22;;;;;;;8.05;6.00;;;14.60;99.90;;;;;;5038008;28;20785;-61
2023/05/11 11:39:59;;;;;;;8.18;6.00;;;14.60;99.90;;;;;;5037676;28;20423;-60
2023/05/11 11:42:36;;;;;;;9.35;6.57;;;14.50;99.90;;;;;;5037644;28;20421;-61
2023/05/11 11:45:25;;;;;;;9.60;7.20;;;14.40;99.90;;;;;;5035504;28;20427;-61
2023/05/11 11:48:12;;;;;;;9.82;6.60;;;14.50;99.90;;;;;;5034686;28;20418;-61
2023/05/11 11:50:41;;;;;;;10.23;6.78;;;14.40;99.90;;;;;;5034414;28;20415;-61
2023/05/11 11:53:11;;;;;;;13.70;7.68;;;14.30;99.90;;;;;;5033963;28;20423;-59
2023/05/11 11:55:51;;;;;;;10.38;7.30;;;14.30;99.90;;;;;;5033327;28;20437;-60
2023/05/11 11:58:56;;;;;;;11.32;7.68;;;14.30;99.90;;;;;;5033390;28;20913;-61
2023/05/11 12:01:25;;;;;;;11.80;8.35;;;14.30;99.90;;;;;;5034181;28;20497;-60
2023/05/11 12:04:15;;;;;;;13.20;8.50;;;14.30;99.90;;;;;;5033727;28;20510;-61
2023/05/11 12:06:43;;;;;;;12.25;8.30;;;14.40;99.90;;;;;;5031840;28;20769;-60
2023/05/11 12:09:10;;;;;;;13.00;8.77;;;14.40;99.90;;;;;;5033783;28;20426;-61
2023/05/11 12:11:39;;;;;;;14.83;8.67;;;14.50;99.90;;;;;;5033821;28;20497;-60
2023/05/11 12:14:09;;;;;;;14.77;8.88;;;14.50;99.90;;;;;;5033803;28;20409;-59
2023/05/11 12:16:35;;;;;;;14.82;8.93;;;14.50;99.90;;;;;;5034224;28;20913;-61
2023/05/11 12:19:03;;;;;;;11.43;8.05;;;14.50;99.90;;;;;;5034094;28;20425;-61
2023/05/11 12:21:31;;;;;;;10.80;7.93;;;14.60;99.90;;;;;;5034356;28;20469;-61
2023/05/11 12:24:00;;;;;;;10.23;7.75;;;14.60;99.90;;;;;;5037053;28;20426;-61
2023/05/11 12:26:28;;;;;;;10.85;8.00;;;14.60;99.90;;;;;;5035784;28;20486;-62
2023/05/11 12:29:08;;;;;;;12.88;8.63;;;14.60;99.90;;;;;;5034159;28;20785;-59
2023/05/11 12:31:36;;;;;;;10.15;8.00;;;14.70;99.90;;;;;;5034553;28;20415;-61
2023/05/11 12:34:02;;;;;;;9.60;7.10;;;14.80;99.90;;;;;;5037594;28;20434;-60
2023/05/11 12:36:30;;;;;;;9.98;7.00;;;14.80;99.90;;;;;;5037708;28;20415;-61
2023/05/11 12:38:57;;;;;;;8.45;7.03;;;15.00;99.90;;;;;;5037747;28;20418;-61
2023/05/11 12:41:24;;;;;;;10.25;7.63;;;15.10;99.90;;;;;;5039013;28;20427;-61
2023/05/11 12:43:53;;;;;;;9.77;7.10;;;15.10;99.90;;;;;;5038003;28;20423;-61
2023/05/11 12:46:22;;;;;;;9.00;7.40;;;15.20;99.90;;;;;;5038028;28;20984;-61
2023/05/11 12:48:50;;;;;;;9.88;8.02;;;15.20;99.90;;;;;;5039238;28;20418;-62